RKSI/ICN METAR and TAF weather

Enter ICAO airport designator
Station Type Date Time Source
RKSI METAR 2021/10/22 19:30 UTC NOAA

RKSI 221930Z 17001KT CAVOK 07/02 Q1027 NOSIG


Station Type Date Time Source
RKSI Decoded METAR 2021/10/22 19:30 UTC NOAA

Incheon International Airport, Korea, South (RKSI) 37-28N 126-27E
Oct 22, 2021 - 03:30 PM EDT / 2021.10.22 1930 UTC
Wind: from the S (170 degrees) at 1 MPH (1 KT):0
Visibility: greater than 7 mile(s):0
Temperature: 44 F (7 C)
Dew Point: 35 F (2 C)
Relative Humidity: 70%
Pressure (altimeter): 30.33 in. Hg (1027 hPa)
ob: RKSI 221930Z 17001KT CAVOK 07/02 Q1027 NOSIG
cycle: 19

Station Type Date Time Source
RKSI TAF 2021/10/22 18:06 UTC NOAA

TAF RKSI 221700Z 2218/2324 07006KT CAVOK TN07/2221Z TX16/2306Z TN07/2321Z
BECMG 2302/2303 31007KT
BECMG 2314/2315 07006KT

Example: see airport list